Terminal Aerodrome Forecast
Issued by NWS

Home | Current Version | Previous Version | Text Only | Print | Product List | Glossary On
Versions: 1 2 3 4 5 6 7 8 9 10 11 12 13 14 15 16 17 18 19 20 21 22 23 24 25
000
FTUS45 KRIW 041100
TAFPNA
TAF
KPNA 041131Z 0412/0512 VRB05KT P6SM VCFG FEW015 SCT200
     FM041500 VRB05KT P6SM FEW100 BKN200
     FM041900 VRB08G15KT P6SM VCSH SCT080
     FM042100 VRB15G25KT P6SM VCTS SCT080CB BKN150
     FM050300 30006KT P6SM BKN100
      AMD LTD TO CLD VIS AND WIND=

USA.gov is the U.S. government's official web portal to all federal, state and local government web resources and services.